Time;durP1;ratioP1;P1;durP2;ratioP2;P2;SDS_P1;SDS_P2;PMS_P1;PMS_P2;Temp;Humidity;BMP_temperature;BMP_pressure;BME280_temperature;BME280_humidity;BME280_pressure;Samples;Min_cycle;Max_cycle;Signal;HPM_P1;HPM_P2
2022/10/28 00:01:17;;;;;;;22.55;17.17;;;;;;;6.84;100.00;99230.70;1811029;79;20849;-58
2022/10/28 00:03:52;;;;;;;27.37;18.92;;;;;;;6.86;100.00;99225.13;1785966;79;21209;-58
2022/10/28 00:06:22;;;;;;;36.05;20.90;;;;;;;6.84;100.00;99225.38;1776543;80;20973;-56
2022/10/28 00:08:50;;;;;;;41.65;20.23;;;;;;;6.75;100.00;99229.45;1783361;78;20847;-57
2022/10/28 00:11:25;;;;;;;37.08;19.70;;;;;;;6.71;100.00;99228.29;1810784;79;21046;-57
2022/10/28 00:13:53;;;;;;;99.90;15.95;;;;;;;6.68;100.00;99228.78;1775575;80;21017;-58
2022/10/28 00:16:23;;;;;;;22.85;14.70;;;;;;;6.70;100.00;99233.86;1790720;78;21144;-58
2022/10/28 00:18:52;;;;;;;20.10;14.58;;;;;;;6.73;100.00;99227.56;1787143;79;20999;-58
2022/10/28 00:21:23;;;;;;;18.70;14.33;;;;;;;6.78;100.00;99228.97;1798561;78;20872;-58
2022/10/28 00:47:50;;;;;;;30.00;16.30;;;;;;;6.50;100.00;99220.92;1784808;78;21024;-57
2022/10/28 00:50:35;;;;;;;17.82;14.95;;;;;;;6.48;100.00;99219.02;1758740;78;20976;-57
2022/10/28 00:53:15;;;;;;;24.07;15.30;;;;;;;6.49;100.00;99225.98;1769640;80;20874;-57
2022/10/28 00:55:43;;;;;;;17.98;15.18;;;;;;;6.53;100.00;99221.80;1792036;78;21514;-58
2022/10/28 00:58:10;;;;;;;22.75;15.45;;;;;;;6.56;100.00;99220.00;1807531;79;21014;-57
2022/10/28 01:00:36;;;;;;;19.42;15.72;;;;;;;6.55;100.00;99222.37;1811950;79;21027;-57
2022/10/28 01:03:03;;;;;;;24.27;15.25;;;;;;;6.59;100.00;99219.55;1781802;78;20930;-57
2022/10/28 01:05:32;;;;;;;26.00;15.53;;;;;;;6.60;100.00;99217.16;1798195;78;20880;-57
2022/10/28 01:08:00;;;;;;;52.03;15.45;;;;;;;6.55;100.00;99217.56;1771355;80;21103;-57
2022/10/28 01:10:37;;;;;;;60.90;16.20;;;;;;;6.48;100.00;99212.37;1769702;80;20949;-57
2022/10/28 01:13:36;;;;;;;120.25;15.20;;;;;;;6.47;100.00;99216.09;1789305;79;20971;-58
2022/10/28 01:16:24;;;;;;;22.82;14.83;;;;;;;6.45;100.00;99223.50;1800962;79;21399;-58
2022/10/28 01:19:25;;;;;;;18.62;13.20;;;;;;;6.47;100.00;99222.75;1811110;78;20892;-58
2022/10/28 01:22:10;;;;;;;21.07;14.28;;;;;;;6.49;100.00;99217.99;1775394;78;20946;-58
2022/10/28 01:24:51;;;;;;;21.73;14.95;;;;;;;6.52;100.00;99212.21;1791194;78;20981;-57
2022/10/28 01:27:39;;;;;;;29.98;15.83;;;;;;;6.50;100.00;99210.28;1801259;78;21417;-59
2022/10/28 01:30:22;;;;;;;34.98;15.83;;;;;;;6.49;100.00;99206.02;1812272;78;20936;-59
2022/10/28 01:33:23;;;;;;;23.85;15.70;;;;;;;6.48;100.00;99208.37;1784960;78;20895;-57
2022/10/28 01:36:10;;;;;;;19.82;14.10;;;;;;;6.45;100.00;99206.72;1802707;79;21222;-58
2022/10/28 01:38:55;;;;;;;16.27;14.30;;;;;;;6.38;100.00;99203.38;1753980;80;20938;-58
2022/10/28 01:41:35;;;;;;;58.42;14.90;;;;;;;6.30;100.00;99198.40;1786656;79;20898;-59
2022/10/28 01:44:25;;;;;;;53.02;14.68;;;;;;;6.26;100.00;99198.07;1782370;78;20930;-57
2022/10/28 01:47:05;;;;;;;17.10;13.88;;;;;;;6.25;100.00;99195.63;1805414;79;21054;-59
2022/10/28 01:49:38;;;;;;;20.70;13.48;;;;;;;6.25;100.00;99196.95;1794769;79;23387;-57
2022/10/28 01:52:08;;;;;;;19.05;14.73;;;;;;;6.26;100.00;99203.91;1807359;78;21051;-58
2022/10/28 01:54:35;;;;;;;26.87;15.28;;;;;;;6.28;100.00;99195.98;1757637;80;20969;-58
2022/10/28 01:57:02;;;;;;;22.15;15.43;;;;;;;6.32;100.00;99195.80;1761447;80;20902;-58
2022/10/28 01:59:29;;;;;;;22.90;15.60;;;;;;;6.38;100.00;99193.55;1792607;78;20985;-58
2022/10/28 02:01:55;;;;;;;21.12;15.80;;;;;;;6.43;100.00;99190.97;1771659;78;21230;-57
2022/10/28 02:04:22;;;;;;;22.15;14.13;;;;;;;6.42;100.00;99189.36;1798069;79;20880;-58
2022/10/28 02:06:53;;;;;;;18.70;13.93;;;;;;;6.43;100.00;99188.30;1806869;79;20916;-58
2022/10/28 02:09:53;;;;;;;26.48;14.75;;;;;;;6.40;100.00;99186.13;1790627;78;21009;-57
2022/10/28 02:12:36;;;;;;;25.52;15.58;;;;;;;6.42;100.00;99184.56;1796772;79;20949;-57
2022/10/28 02:15:17;;;;;;;17.32;14.45;;;;;;;6.47;100.00;99181.49;1805705;78;21257;-57
2022/10/28 02:18:02;;;;;;;15.80;13.62;;;;;;;6.52;100.00;99176.27;1798323;78;21591;-57
2022/10/28 02:20:37;;;;;;;17.10;14.38;;;;;;;6.58;100.00;99179.31;1775524;78;20965;-57
2022/10/28 02:23:43;;;;;;;16.95;14.87;;;;;;;6.63;100.00;99176.76;1798784;79;20963;-57
2022/10/28 02:26:36;;;;;;;20.23;15.18;;;;;;;6.67;100.00;99174.41;1810289;78;21011;-57
2022/10/28 02:29:17;;;;;;;20.37;15.10;;;;;;;6.68;100.00;99182.19;1812980;78;21218;-57
2022/10/28 02:31:48;;;;;;;18.65;14.58;;;;;;;6.70;100.00;99172.63;1782837;78;20927;-59
2022/10/28 02:34:19;;;;;;;14.47;12.95;;;;;;;6.66;100.00;99174.15;1765913;80;21085;-59
2022/10/28 02:36:49;;;;;;;16.20;13.40;;;;;;;6.59;100.00;99167.63;1753434;80;20938;-59
2022/10/28 02:39:19;;;;;;;19.90;14.80;;;;;;;6.56;100.00;99170.76;1761676;80;21488;-59
2022/10/28 02:42:09;;;;;;;18.37;14.38;;;;;;;6.56;100.00;99165.95;1771624;78;21199;-59
2022/10/28 02:44:39;;;;;;;17.30;14.53;;;;;;;6.54;100.00;99172.03;1809829;79;21050;-56
2022/10/28 02:47:10;;;;;;;15.68;13.45;;;;;;;6.52;100.00;99171.47;1797086;79;20924;-58
2022/10/28 02:49:38;;;;;;;15.10;12.65;;;;;;;6.52;100.00;99175.46;1811926;78;21011;-58
2022/10/28 02:52:05;;;;;;;16.15;12.70;;;;;;;6.52;100.00;99170.95;1805657;78;20920;-58
2022/10/28 02:54:54;;;;;;;14.90;13.40;;;;;;;6.56;100.00;99174.75;1779933;79;21398;-58
2022/10/28 02:57:23;;;;;;;15.85;13.08;;;;;;;6.59;100.00;99171.63;1791422;79;20910;-58
2022/10/28 02:59:56;;;;;;;16.15;14.45;;;;;;;6.62;100.00;99172.47;1808390;79;20885;-58
2022/10/28 03:02:23;;;;;;;17.02;13.68;;;;;;;6.64;100.00;99175.69;1731263;80;20965;-58
2022/10/28 03:04:49;;;;;;;13.85;12.40;;;;;;;6.68;100.00;99175.53;1726303;81;21451;-58
2022/10/28 03:07:16;;;;;;;16.93;13.05;;;;;;;6.69;100.00;99169.14;1728247;82;21111;-58
2022/10/28 03:09:43;;;;;;;16.35;12.70;;;;;;;6.71;100.00;99169.71;1736368;82;21047;-58
2022/10/28 03:12:11;;;;;;;16.75;13.08;;;;;;;6.74;100.00;99175.91;1724642;82;21588;-58
2022/10/28 03:14:38;;;;;;;14.65;12.45;;;;;;;6.76;100.00;99171.14;1722814;82;20943;-58
2022/10/28 03:17:06;;;;;;;14.95;12.60;;;;;;;6.73;100.00;99172.16;1718063;82;21013;-58
2022/10/28 03:19:33;;;;;;;18.45;12.20;;;;;;;6.69;100.00;99177.13;1735370;82;21257;-58
2022/10/28 03:22:01;;;;;;;14.65;12.45;;;;;;;6.67;100.00;99168.58;1741559;82;20918;-58
2022/10/28 03:24:28;;;;;;;16.17;13.00;;;;;;;6.67;100.00;99169.91;1740834;81;21001;-58
2022/10/28 03:26:54;;;;;;;15.80;14.07;;;;;;;6.66;100.00;99171.48;1737922;82;20929;-58
2022/10/28 03:29:21;;;;;;;15.95;14.25;;;;;;;6.67;100.00;99175.75;1716738;81;21009;-58
2022/10/28 03:31:47;;;;;;;15.72;13.30;;;;;;;6.69;100.00;99176.31;1739851;82;21112;-58
2022/10/28 03:34:14;;;;;;;15.32;12.73;;;;;;;6.72;100.00;99170.52;1716778;81;21622;-58
2022/10/28 03:36:41;;;;;;;16.67;13.78;;;;;;;6.72;100.00;99176.67;1736765;82;21032;-58
2022/10/28 03:39:07;;;;;;;23.27;16.67;;;;;;;6.74;100.00;99173.76;1722856;81;20994;-58
2022/10/28 03:41:35;;;;;;;16.32;14.58;;;;;;;6.75;100.00;99169.55;1788204;79;20997;-58
2022/10/28 03:44:02;;;;;;;18.12;15.05;;;;;;;6.78;100.00;99166.39;1790864;79;21937;-58
2022/10/28 03:46:29;;;;;;;17.70;15.80;;;;;;;6.79;100.00;99166.69;1797535;78;20845;-58
2022/10/28 03:48:56;;;;;;;19.95;14.28;;;;;;;6.83;100.00;99165.67;1804690;78;20975;-58
2022/10/28 03:51:23;;;;;;;14.75;12.53;;;;;;;6.86;100.00;99163.88;1809584;78;21411;-58
2022/10/28 03:53:52;;;;;;;15.68;13.68;;;;;;;6.90;100.00;99167.16;1767320;79;20855;-58
2022/10/28 03:56:18;;;;;;;17.52;14.18;;;;;;;6.93;100.00;99161.06;1767392;79;21979;-58
2022/10/28 03:58:48;;;;;;;17.85;13.38;;;;;;;6.95;100.00;99161.66;1782383;79;20941;-58
2022/10/28 04:01:15;;;;;;;16.17;12.65;;;;;;;6.95;100.00;99157.12;1767347;79;21046;-59
2022/10/28 04:03:42;;;;;;;18.02;13.00;;;;;;;6.94;100.00;99155.52;1792878;79;20896;-58
2022/10/28 04:06:09;;;;;;;17.77;13.50;;;;;;;6.92;100.00;99159.46;1774713;79;20863;-59
2022/10/28 04:08:37;;;;;;;17.80;13.60;;;;;;;6.90;100.00;99152.50;1789395;78;21366;-59
2022/10/28 04:11:04;;;;;;;22.00;14.63;;;;;;;6.89;100.00;99152.75;1775338;78;20956;-59
2022/10/28 04:13:31;;;;;;;15.43;13.72;;;;;;;6.86;100.00;99147.37;1792941;79;21377;-59
2022/10/28 04:16:00;;;;;;;15.50;12.00;;;;;;;6.81;100.00;99148.61;1797663;79;20936;-59
2022/10/28 04:18:27;;;;;;;21.80;14.40;;;;;;;6.71;100.00;99151.07;1775056;78;20996;-56
2022/10/28 04:20:56;;;;;;;21.07;14.55;;;;;;;6.60;100.00;99149.27;1813753;78;21171;-56
2022/10/28 04:23:22;;;;;;;19.07;15.90;;;;;;;6.52;100.00;99144.33;1810057;79;20964;-56
2022/10/28 04:25:53;;;;;;;24.70;17.60;;;;;;;6.45;100.00;99146.32;1811936;79;20888;-59
2022/10/28 04:28:22;;;;;;;60.95;49.67;;;;;;;6.38;100.00;99147.48;1753198;80;20871;-58
2022/10/28 04:30:49;;;;;;;48.52;42.45;;;;;;;6.32;100.00;99147.89;1775306;80;20977;-58
2022/10/28 04:33:15;;;;;;;34.55;30.52;;;;;;;6.26;100.00;99147.52;1804950;78;21244;-59
2022/10/28 04:35:42;;;;;;;50.88;43.92;;;;;;;6.27;100.00;99154.44;1812709;78;21400;-58
2022/10/28 04:38:10;;;;;;;54.77;48.40;;;;;;;6.26;100.00;99144.86;1776669;78;20894;-59
2022/10/28 04:40:38;;;;;;;47.40;42.15;;;;;;;6.24;100.00;99144.28;1789425;78;21038;-59
2022/10/28 04:43:04;;;;;;;48.50;42.43;;;;;;;6.23;100.00;99155.95;1764607;80;21477;-59
2022/10/28 04:45:31;;;;;;;38.65;32.10;;;;;;;6.19;100.00;99140.19;1782234;79;21214;-59
2022/10/28 04:47:59;;;;;;;19.40;15.45;;;;;;;6.15;100.00;99145.66;1793865;79;21502;-58
2022/10/28 04:50:26;;;;;;;19.98;14.87;;;;;;;6.17;100.00;99143.61;1760489;80;20866;-58
2022/10/28 04:52:54;;;;;;;16.30;14.55;;;;;;;6.20;100.00;99143.93;1770530;80;20921;-58
2022/10/28 04:55:21;;;;;;;18.37;15.80;;;;;;;6.28;100.00;99148.60;1806815;78;21421;-58
2022/10/28 04:57:58;;;;;;;21.30;16.20;;;;;;;6.34;100.00;99146.32;1796537;79;21072;-58
2022/10/28 05:00:26;;;;;;;20.40;16.95;;;;;;;6.36;100.00;99149.03;1766984;78;21044;-57
2022/10/28 05:02:53;;;;;;;19.75;15.83;;;;;;;6.39;100.00;99151.23;1789282;79;21550;-58
2022/10/28 05:05:20;;;;;;;21.02;17.57;;;;;;;6.42;100.00;99148.63;1784509;78;20943;-58
2022/10/28 05:07:47;;;;;;;28.20;21.35;;;;;;;6.43;100.00;99150.26;1811005;79;20840;-57
2022/10/28 05:10:15;;;;;;;48.63;38.95;;;;;;;6.47;100.00;99143.41;1806825;78;21399;-57
2022/10/28 05:12:44;;;;;;;140.20;113.35;;;;;;;6.50;100.00;99142.95;1804821;78;20887;-58
2022/10/28 05:15:17;;;;;;;63.83;52.53;;;;;;;6.44;100.00;99140.70;1791077;78;20970;-57
2022/10/28 05:17:44;;;;;;;50.50;41.80;;;;;;;6.39;100.00;99145.09;1807982;78;21402;-57
2022/10/28 05:20:12;;;;;;;34.25;29.20;;;;;;;6.38;100.00;99149.64;1809958;79;20900;-58
2022/10/28 05:22:49;;;;;;;34.75;29.72;;;;;;;6.39;100.00;99148.58;1801553;78;21324;-58
2022/10/28 05:25:16;;;;;;;37.48;20.02;;;;;;;6.43;100.00;99151.05;1791099;77;21524;-58
2022/10/28 05:27:43;;;;;;;26.15;20.40;;;;;;;6.47;100.00;99143.41;1817938;77;20880;-58
2022/10/28 05:30:11;;;;;;;47.03;31.12;;;;;;;6.52;100.00;99143.00;1800547;79;21450;-58
2022/10/28 05:32:38;;;;;;;38.92;31.50;;;;;;;6.58;100.00;99147.37;1795462;79;21006;-57
2022/10/28 05:35:06;;;;;;;31.52;25.75;;;;;;;6.59;100.00;99137.02;1801347;78;22586;-57
2022/10/28 05:37:34;;;;;;;38.30;33.98;;;;;;;6.60;100.00;99142.61;1809025;77;20991;-57
2022/10/28 05:40:01;;;;;;;43.87;36.23;;;;;;;6.61;100.00;99137.59;1800118;77;21633;-57
2022/10/28 05:42:27;;;;;;;35.85;29.40;;;;;;;6.63;100.00;99131.50;1811134;77;20981;-57
2022/10/28 05:44:54;;;;;;;23.80;20.08;;;;;;;6.67;100.00;99133.15;1812021;77;21393;-58
2022/10/28 05:47:23;;;;;;;22.70;18.35;;;;;;;6.72;100.00;99131.41;1822521;77;21224;-58
2022/10/28 05:49:51;;;;;;;27.20;21.20;;;;;;;6.81;100.00;99127.82;1817849;77;20897;-58
2022/10/28 05:52:18;;;;;;;22.87;18.15;;;;;;;6.91;100.00;99125.36;1824637;77;21153;-58
2022/10/28 05:59:54;;;;;;;34.08;26.25;;;;;;;7.28;100.00;99131.05;1800271;77;21554;-58
2022/10/28 06:02:27;;;;;;;31.77;28.12;;;;;;;7.42;100.00;99129.68;1800898;77;21057;-57
2022/10/28 06:05:01;;;;;;;35.75;29.63;;;;;;;7.56;100.00;99130.97;1803771;77;21719;-65
2022/10/28 06:07:29;;;;;;;29.12;24.80;;;;;;;7.72;100.00;99125.37;1802257;78;20956;-60
2022/10/28 06:09:56;;;;;;;30.35;21.40;;;;;;;7.86;100.00;99132.79;1802789;77;20892;-57
2022/10/28 06:12:23;;;;;;;24.23;19.05;;;;;;;7.98;100.00;99130.83;1813105;77;21088;-64
2022/10/28 06:14:52;;;;;;;21.87;17.35;;;;;;;8.13;100.00;99135.55;1825832;77;20986;-59
2022/10/28 06:17:19;;;;;;;22.22;17.40;;;;;;;8.25;100.00;99134.39;1805750;78;21259;-58
2022/10/28 06:19:46;;;;;;;19.70;16.10;;;;;;;8.38;100.00;99128.44;1817932;77;21082;-60
2022/10/28 06:22:14;;;;;;;21.77;17.70;;;;;;;8.46;100.00;99130.66;1805160;77;21553;-58
2022/10/28 06:24:43;;;;;;;19.80;15.00;;;;;;;8.51;100.00;99124.86;1800810;78;21119;-57
2022/10/28 06:27:11;;;;;;;18.05;15.80;;;;;;;8.56;100.00;99133.45;1806891;78;21050;-59
2022/10/28 06:29:40;;;;;;;16.85;14.35;;;;;;;8.61;100.00;99133.00;1800168;78;21597;-58
2022/10/28 06:32:11;;;;;;;22.40;14.68;;;;;;;8.68;100.00;99132.80;1798850;77;21133;-61
2022/10/28 06:34:53;;;;;;;20.13;15.63;;;;;;;8.76;100.00;99132.36;1804397;77;20880;-61
2022/10/28 06:37:26;;;;;;;22.48;17.10;;;;;;;8.83;100.00;99132.97;1799317;77;21093;-59
2022/10/28 06:43:05;;;;;;;32.25;23.25;;;;;;;8.94;100.00;99140.03;1823657;77;21029;-60
2022/10/28 06:45:34;;;;;;;49.23;31.10;;;;;;;9.00;100.00;99134.22;1814646;77;21005;-58
2022/10/28 06:48:04;;;;;;;70.37;40.73;;;;;;;9.09;100.00;99136.70;1806751;77;20900;-59
2022/10/28 06:50:37;;;;;;;100.27;59.67;;;;;;;9.21;100.00;99136.02;1805088;77;21085;-56
2022/10/28 06:53:04;;;;;;;96.25;61.73;;;;;;;9.33;100.00;99136.12;1810975;77;21549;-59
2022/10/28 06:55:34;;;;;;;100.92;61.40;;;;;;;9.46;100.00;99136.23;1803589;78;21098;-59
2022/10/28 06:58:01;;;;;;;375.45;168.32;;;;;;;9.57;100.00;99136.06;1800693;78;21579;-57
2022/10/28 07:00:30;;;;;;;242.13;120.85;;;;;;;9.71;100.00;99140.95;1804502;77;21105;-58
2022/10/28 07:02:57;;;;;;;124.87;78.40;;;;;;;9.81;100.00;99139.70;1803549;77;21205;-59
2022/10/28 07:05:25;;;;;;;90.12;54.13;;;;;;;9.91;100.00;99141.11;1805692;78;21031;-57
2022/10/28 07:07:57;;;;;;;252.00;122.58;;;;;;;10.03;100.00;99136.38;1811651;77;21188;-57
2022/10/28 07:10:25;;;;;;;117.97;62.73;;;;;;;10.15;100.00;99139.70;1812604;78;21024;-57
2022/10/28 07:12:52;;;;;;;63.13;40.35;;;;;;;10.26;100.00;99142.69;1748227;80;20980;-57
2022/10/28 07:15:20;;;;;;;69.00;46.53;;;;;;;10.37;100.00;99141.66;1813943;77;20943;-60
2022/10/28 07:17:56;;;;;;;98.07;58.83;;;;;;;10.49;100.00;99138.23;1802550;77;21054;-60
2022/10/28 07:20:24;;;;;;;100.27;55.90;;;;;;;10.58;100.00;99138.53;1804717;77;21090;-59
2022/10/28 07:23:02;;;;;;;92.25;56.15;;;;;;;10.69;100.00;99142.88;1808642;77;21001;-59
2022/10/28 07:25:31;;;;;;;92.95;61.35;;;;;;;10.82;100.00;99144.52;1808996;77;21024;-57
2022/10/28 07:27:58;;;;;;;71.28;45.83;;;;;;;10.97;100.00;99148.56;1804518;77;21223;-58
2022/10/28 07:30:27;;;;;;;78.25;49.70;;;;;;;11.09;100.00;99140.31;1792933;77;20989;-56
2022/10/28 07:32:54;;;;;;;63.68;43.48;;;;;;;11.20;100.00;99134.41;1807204;79;21009;-59
2022/10/28 07:35:24;;;;;;;53.80;37.13;;;;;;;11.32;100.00;99132.28;1810647;79;21013;-57
2022/10/28 07:37:53;;;;;;;46.23;31.27;;;;;;;11.44;100.00;99139.00;1795634;79;21086;-57
2022/10/28 07:40:24;;;;;;;116.47;67.20;;;;;;;11.54;100.00;99136.30;1793287;77;21068;-58
2022/10/28 07:42:52;;;;;;;84.60;51.85;;;;;;;11.64;100.00;99132.81;1829033;77;20999;-58
2022/10/28 07:45:19;;;;;;;61.10;39.83;;;;;;;11.78;100.00;99134.44;1812210;77;20971;-59
2022/10/28 07:47:46;;;;;;;62.08;38.30;;;;;;;11.86;100.00;99134.71;1806931;77;21117;-59
2022/10/28 07:50:15;;;;;;;29.57;17.98;;;;;;;11.97;100.00;99129.58;1768415;79;21051;-59
2022/10/28 07:52:41;;;;;;;189.82;111.95;;;;;;;12.08;100.00;99134.41;1791045;78;21205;-61
2022/10/28 07:55:09;;;;;;;148.65;83.58;;;;;;;12.19;100.00;99131.95;1809822;77;21047;-59
2022/10/28 07:57:37;;;;;;;119.10;64.05;;;;;;;12.30;100.00;99139.70;1809131;78;21025;-60
2022/10/28 08:00:11;;;;;;;57.15;35.75;;;;;;;12.43;100.00;99141.02;1811233;77;21085;-57
2022/10/28 08:02:39;;;;;;;43.05;26.48;;;;;;;12.54;100.00;99132.37;1807459;77;37132;-55
2022/10/28 08:05:07;;;;;;;25.02;15.18;;;;;;;12.73;100.00;99138.73;1808579;78;21074;-62
2022/10/28 08:07:34;;;;;;;20.60;13.62;;;;;;;12.84;100.00;99132.22;1797795;78;20957;-58
2022/10/28 08:10:01;;;;;;;22.90;13.60;;;;;;;12.86;100.00;99136.77;1813755;77;21050;-63
2022/10/28 08:12:29;;;;;;;119.35;46.60;;;;;;;12.92;100.00;99136.49;1828768;77;21026;-58
2022/10/28 08:15:08;;;;;;;69.45;33.50;;;;;;;13.01;100.00;99134.02;1837600;77;20906;-62
2022/10/28 08:17:37;;;;;;;21.05;12.45;;;;;;;13.13;100.00;99134.51;1826713;77;21098;-60
2022/10/28 08:20:09;;;;;;;22.05;12.98;;;;;;;13.22;100.00;99135.52;1839453;77;20975;-60
2022/10/28 08:22:36;;;;;;;34.43;19.50;;;;;;;13.27;99.92;99126.61;1817155;77;20896;-62
2022/10/28 08:25:06;;;;;;;36.40;20.37;;;;;;;13.36;99.64;99131.11;1834914;77;21001;-58
2022/10/28 08:27:35;;;;;;;36.48;21.48;;;;;;;13.45;98.96;99132.12;1813396;77;21019;-60
2022/10/28 08:30:04;;;;;;;32.78;18.37;;;;;;;13.54;98.29;99130.42;1815527;77;21655;-61
2022/10/28 08:32:31;;;;;;;31.70;20.27;;;;;;;13.64;97.79;99129.53;1813193;77;21041;-60
2022/10/28 08:34:58;;;;;;;22.50;13.78;;;;;;;13.76;97.36;99133.20;1830205;77;21413;-60
2022/10/28 08:37:25;;;;;;;14.07;10.23;;;;;;;13.84;96.77;99128.02;1812618;77;21125;-59
2022/10/28 08:39:52;;;;;;;11.63;7.47;;;;;;;13.94;95.99;99127.13;1791953;78;21053;-60
2022/10/28 08:42:43;;;;;;;13.58;8.45;;;;;;;14.01;94.13;99127.05;1810450;77;21062;-58
2022/10/28 08:45:41;;;;;;;12.10;7.75;;;;;;;14.11;93.45;99132.86;1804877;78;20966;-58
2022/10/28 08:48:20;;;;;;;12.98;7.35;;;;;;;14.26;92.78;99127.31;1799347;78;21182;-58
2022/10/28 08:50:57;;;;;;;10.82;7.12;;;;;;;14.42;91.46;99128.77;1810903;78;21505;-59
2022/10/28 08:53:31;;;;;;;11.48;7.10;;;;;;;14.48;89.99;99126.30;1810473;77;21248;-58
2022/10/28 08:56:06;;;;;;;9.85;6.85;;;;;;;14.54;89.08;99122.44;1811575;78;21431;-58
2022/10/28 08:58:33;;;;;;;9.60;6.55;;;;;;;14.63;87.97;99130.13;1785274;79;20924;-58
2022/10/28 09:01:00;;;;;;;11.40;7.28;;;;;;;14.68;86.66;99131.42;1808797;77;21529;-58
2022/10/28 09:03:34;;;;;;;15.68;8.50;;;;;;;14.73;85.43;99116.53;1785311;78;21028;-59
2022/10/28 09:06:07;;;;;;;11.80;7.55;;;;;;;14.78;85.63;99113.77;1804255;77;21142;-58
2022/10/28 09:08:42;;;;;;;12.90;8.58;;;;;;;14.85;85.86;99102.61;1832894;77;21206;-60
2022/10/28 09:11:42;;;;;;;10.30;7.37;;;;;;;14.94;85.41;99106.26;1810425;77;20935;-58
2022/10/28 09:14:32;;;;;;;9.63;8.20;;;;;;;15.04;85.72;99102.88;1770591;79;21633;-59
2022/10/28 09:17:29;;;;;;;14.55;8.25;;;;;;;15.21;85.62;99104.25;1806110;78;21559;-59
2022/10/28 09:20:17;;;;;;;10.85;8.15;;;;;;;15.34;84.71;99107.55;1812470;78;20981;-60
2022/10/28 09:22:59;;;;;;;13.00;8.83;;;;;;;15.45;83.90;99104.99;1804754;78;21110;-61
2022/10/28 09:25:31;;;;;;;11.78;8.63;;;;;;;15.50;82.39;99094.08;1802707;78;21549;-58
2022/10/28 09:28:38;;;;;;;14.70;9.45;;;;;;;15.49;82.00;99104.11;1786565;79;21633;-57
2022/10/28 09:31:10;;;;;;;13.10;8.50;;;;;;;15.49;82.06;99106.00;1816001;77;20931;-60
2022/10/28 09:34:03;;;;;;;10.50;7.85;;;;;;;15.52;82.19;99101.36;1805746;77;21069;-58
2022/10/28 09:36:44;;;;;;;11.95;8.28;;;;;;;15.58;81.98;99094.77;1815557;77;21489;-59
2022/10/28 09:39:25;;;;;;;10.85;9.60;;;;;;;15.69;82.25;99098.89;1810536;78;20964;-59
2022/10/28 09:41:51;;;;;;;15.40;9.08;;;;;;;15.71;80.54;99089.94;1809645;77;20971;-59
2022/10/28 09:44:47;;;;;;;15.53;9.10;;;;;;;15.70;80.79;99099.16;1802314;77;21090;-58
2022/10/28 09:47:22;;;;;;;12.50;10.30;;;;;;;15.69;80.94;99086.73;1814006;77;21055;-58
2022/10/28 09:49:52;;;;;;;11.65;8.98;;;;;;;15.74;80.55;99100.16;1792250;79;25317;-58
2022/10/28 09:52:33;;;;;;;11.45;8.28;;;;;;;15.68;79.59;99093.25;1797094;78;21493;-58
2022/10/28 09:55:06;;;;;;;10.43;8.25;;;;;;;15.58;80.25;99092.88;1824636;77;21522;-58
2022/10/28 09:57:33;;;;;;;13.18;8.90;;;;;;;15.62;80.90;99091.72;1808218;77;21070;-60
2022/10/28 10:00:00;;;;;;;10.25;8.85;;;;;;;15.75;81.55;99095.02;1830447;77;21129;-59
2022/10/28 10:02:32;;;;;;;12.95;8.65;;;;;;;15.87;80.81;99093.19;1819721;77;21236;-59
2022/10/28 10:05:01;;;;;;;13.75;9.45;;;;;;;15.92;80.25;99091.17;1786858;79;21019;-59
2022/10/28 10:07:38;;;;;;;12.03;8.88;;;;;;;15.95;80.23;99087.89;1790327;79;21284;-59
2022/10/28 10:10:37;;;;;;;11.22;8.23;;;;;;;15.97;79.72;99080.28;1795877;78;21569;-58
2022/10/28 10:13:04;;;;;;;13.68;9.95;;;;;;;15.96;79.52;99085.45;1802026;78;21057;-58
2022/10/28 10:15:44;;;;;;;10.20;8.85;;;;;;;15.94;79.22;99083.59;1811268;78;21230;-58
2022/10/28 10:18:19;;;;;;;11.22;8.68;;;;;;;15.93;79.13;99083.33;1823560;77;21129;-58
2022/10/28 10:20:51;;;;;;;11.83;8.60;;;;;;;15.91;79.31;99081.48;1805088;78;20942;-58
2022/10/28 10:23:30;;;;;;;10.30;8.50;;;;;;;15.92;79.87;99084.42;1811818;77;21611;-58
2022/10/28 10:26:12;;;;;;;11.55;8.30;;;;;;;16.00;79.93;99090.50;1811716;77;21047;-64
2022/10/28 10:28:47;;;;;;;10.75;7.55;;;;;;;16.04;79.32;99079.91;1822045;77;22047;-59
2022/10/28 10:31:26;;;;;;;;;;;;;;;16.09;79.70;99079.23;1804729;77;20917;-60
2022/10/28 10:33:55;;;;;;;12.03;8.60;;;;;;;16.18;78.75;99077.44;1820101;77;20083;-60
2022/10/28 10:36:27;;;;;;;14.38;8.05;;;;;;;16.24;78.37;99077.61;1810560;77;20964;-59
2022/10/28 10:38:57;;;;;;;10.00;7.83;;;;;;;16.28;78.07;99080.49;1795231;77;21140;-57
2022/10/28 10:41:41;;;;;;;9.83;7.10;;;;;;;16.32;77.23;99076.88;1799958;78;21134;-58
2022/10/28 10:44:26;;;;;;;12.35;7.90;;;;;;;16.36;77.94;99072.50;1813413;77;21078;-57
2022/10/28 10:47:04;;;;;;;10.75;7.83;;;;;;;16.47;77.27;99080.38;1807685;79;21135;-58
2022/10/28 10:49:31;;;;;;;9.93;6.70;;;;;;;16.47;76.37;99074.97;1805320;79;20994;-59
2022/10/28 10:52:19;;;;;;;10.00;6.15;;;;;;;16.45;76.58;99069.88;1791870;77;20969;-58
2022/10/28 10:55:06;;;;;;;9.35;6.80;;;;;;;16.51;76.52;99062.47;1780251;77;25228;-60
2022/10/28 10:57:34;;;;;;;9.95;6.95;;;;;;;16.61;76.18;99062.26;1827241;77;21039;-60
2022/10/28 11:00:02;;;;;;;9.80;6.75;;;;;;;16.64;75.50;99056.25;1827200;77;20975;-60
2022/10/28 11:02:38;;;;;;;13.53;7.05;;;;;;;16.66;75.47;99058.91;1812789;77;21100;-59
2022/10/28 11:05:09;;;;;;;7.50;6.70;;;;;;;16.70;75.15;99049.64;1802848;77;21486;-59
2022/10/28 11:07:38;;;;;;;9.05;5.87;;;;;;;16.75;75.23;99053.56;1806296;78;21171;-59
2022/10/28 11:10:10;;;;;;;9.00;5.53;;;;;;;16.79;74.21;99049.16;1804845;77;21049;-59
2022/10/28 11:12:40;;;;;;;8.25;6.10;;;;;;;16.82;74.13;99043.92;1803060;77;21639;-60
2022/10/28 11:15:23;;;;;;;11.93;8.23;;;;;;;16.93;71.98;99048.57;1733739;79;21003;-60
2022/10/28 11:18:15;;;;;;;14.75;6.25;;;;;;;16.91;72.08;99050.20;1802720;79;20935;-58
2022/10/28 11:21:21;;;;;;;9.08;5.33;;;;;;;16.89;71.17;99054.32;1810859;77;21235;-62
2022/10/28 11:24:15;;;;;;;7.95;5.65;;;;;;;16.85;69.95;99055.50;1818101;77;20951;-61
2022/10/28 11:27:17;;;;;;;6.85;4.70;;;;;;;16.76;69.81;99050.57;1791775;78;20962;-61
2022/10/28 11:29:45;;;;;;;6.60;4.60;;;;;;;16.71;69.28;99053.93;1806946;78;21090;-59
2022/10/28 11:32:38;;;;;;;10.23;5.20;;;;;;;16.79;69.41;99045.11;1755332;80;21081;-59
2022/10/28 11:35:38;;;;;;;6.78;4.55;;;;;;;16.88;68.95;99043.27;1824648;77;21181;-61
2022/10/28 11:38:34;;;;;;;21.35;7.30;;;;;;;17.04;69.26;99040.45;1803602;79;21457;-59
2022/10/28 11:41:28;;;;;;;7.72;4.30;;;;;;;17.20;67.75;99038.97;1787117;78;20912;-61
2022/10/28 11:43:57;;;;;;;6.75;4.10;;;;;;;17.25;67.14;99039.41;1802892;78;21068;-62
2022/10/28 11:46:41;;;;;;;5.60;3.60;;;;;;;17.34;66.67;99030.23;1810474;78;21086;-60
2022/10/28 11:49:36;;;;;;;5.83;3.33;;;;;;;17.50;66.78;99023.89;1810933;77;21322;-60
2022/10/28 11:52:34;;;;;;;5.03;2.95;;;;;;;17.68;65.71;99014.22;1807759;77;20995;-60
2022/10/28 11:55:28;;;;;;;5.78;2.80;;;;;;;17.90;64.50;99013.33;1817897;77;20881;-61
2022/10/28 11:58:10;;;;;;;6.65;2.80;;;;;;;18.08;63.73;99009.59;1822164;77;20963;-61
2022/10/28 12:01:25;;;;;;;4.97;2.85;;;;;;;18.23;63.45;99004.29;1798002;77;20973;-60
2022/10/28 12:04:16;;;;;;;5.58;3.83;;;;;;;18.38;61.13;99003.27;1808711;78;21262;-60
2022/10/28 12:07:13;;;;;;;4.83;3.00;;;;;;;18.42;60.97;99007.49;1809881;78;21495;-60
2022/10/28 12:10:22;;;;;;;6.55;2.47;;;;;;;18.49;60.87;99003.78;1798172;78;21664;-60
2022/10/28 12:13:09;;;;;;;3.52;2.70;;;;;;;18.64;59.75;99004.69;1806737;78;21074;-60
2022/10/28 12:16:00;;;;;;;6.22;2.70;;;;;;;18.76;59.39;99006.22;1794066;78;21083;-58
2022/10/28 12:18:41;;;;;;;4.95;3.00;;;;;;;18.76;60.12;98999.44;1804488;77;21227;-59
2022/10/28 12:21:22;;;;;;;5.90;3.40;;;;;;;18.68;59.30;98996.14;1809258;77;21102;-60
2022/10/28 12:23:50;;;;;;;4.92;3.02;;;;;;;18.48;59.90;98995.42;1802601;78;20997;-60